Latest Weather Observations for Yarrawonga

IDN60801

Issued at 10:32 am EDT Friday 9 December 2016 (issued every 30 minutes, with the page automatically refreshed every 10 minutes)

About weather observations | Map of weather stations | Latest weather observations for NSW | Other Formats
Station Details ID: 081124 Name: YARRAWONGA Lat: -36.03 Lon: 146.03 Height: 128.9 m
Data from the previous 72 hours. | See also: Recent months at Yarrawonga
Date/Time
EDT
Temp
°C
App
Temp
°C
Dew
Point
°C
Rel
Hum
%
Delta-T
°C
Wind Press
QNH
hPa
Press
MSL
hPa
Rain since
9am
mm
Dir  Spd
km/h
Gust
km/h
Spd
kts
Gust
kts
09/10:30am 16.2 10.7 6.1 51 4.9 SW 24 33 13 18 1015.9 1015.4 0.0
09/10:00am 14.5 9.0 5.8 56 4.2 SW 24 35 13 19 1015.7 1015.2 0.0
09/09:30am 13.5 6.3 5.2 57 3.9 SW 32 46 17 25 1015.3 1014.8 0.0
09/09:24am 14.6 7.7 6.4 58 4.0 SW 32 50 17 27 1015.2 1014.7 0.0
09/09:00am 13.9 7.6 5.8 58 3.9 SW 28 43 15 23 1015.0 1014.5 6.8
09/08:30am 13.1 5.9 5.8 61 3.5 SW 33 46 18 25 1014.4 1014.0 6.8
09/08:00am 12.1 5.0 5.7 65 3.0 SW 32 46 17 25 1013.8 1013.4 6.8
09/07:30am 11.3 6.8 7.0 75 2.1 SW 20 32 11 17 1013.3 1012.9 6.8
09/07:00am 10.2 5.4 7.4 83 1.3 WSW 22 30 12 16 1012.4 1011.9 6.8
09/06:30am 9.4 5.0 7.3 87 1.0 WSW 20 28 11 15 1011.8 1011.3 6.8
09/06:00am 9.6 3.6 7.0 84 1.2 WSW 28 35 15 19 1011.2 1010.7 6.8
09/05:30am 9.4 5.1 7.7 89 0.8 WSW 20 28 11 15 1011.0 1010.5 6.8
09/05:00am 9.6 5.8 7.7 88 0.9 W 17 22 9 12 1010.2 1009.7 6.8
09/04:30am 9.7 6.3 7.6 87 1.0 WSW 15 20 8 11 1009.9 1009.4 6.8
09/04:00am 10.1 6.4 8.0 87 1.0 WSW 17 24 9 13 1009.5 1009.0 6.8
09/03:30am 10.5 7.0 8.6 88 0.9 WSW 17 24 9 13 1009.1 1008.6 6.8
09/03:00am 10.9 7.8 8.8 87 1.0 WSW 15 19 8 10 1008.8 1008.3 6.8
09/02:30am 11.9 7.6 9.5 85 1.2 SW 22 33 12 18 1008.3 1007.8 6.8
09/02:00am 12.4 6.7 9.8 84 1.3 WSW 30 39 16 21 1008.5 1008.0 6.8
09/01:30am 13.3 8.3 9.7 79 1.9 WSW 26 39 14 21 1008.2 1007.7 6.8
09/01:00am 13.2 9.6 10.0 81 1.7 WSW 19 24 10 13 1008.1 1007.6 6.8
09/12:30am 13.4 8.8 9.8 79 1.9 WSW 24 35 13 19 1007.9 1007.4 6.8
09/12:00am 14.0 9.2 10.2 78 2.0 WSW 26 33 14 18 1007.5 1007.0 6.8
 
Date/Time
EDT
Temp
°C
App
Temp
°C
Dew
Point
°C
Rel
Hum
%
Delta-T
°C
Wind Press
QNH
hPa
Press
MSL
hPa
Rain since
9am
mm
Dir  Spd
km/h
Gust
km/h
Spd
kts
Gust
kts
08/11:30pm 13.8 9.9 9.6 76 2.2 WSW 20 30 11 16 1007.2 1006.7 6.8
08/11:00pm 14.1 10.2 9.5 74 2.4 WSW 20 28 11 15 1007.0 1006.5 6.8
08/10:30pm 14.4 11.9 9.8 74 2.4 WSW 13 20 7 11 1006.7 1006.3 6.8
08/10:00pm 15.1 11.5 9.7 70 2.8 SW 19 26 10 14 1006.4 1006.0 6.8
08/09:30pm 17.0 11.5 7.4 53 4.8 W 26 39 14 21 1005.8 1005.4 6.8
08/09:00pm 17.8 12.2 8.6 55 4.8 W 28 37 15 20 1004.9 1004.4 6.8
08/08:30pm 18.4 12.2 7.8 50 5.4 W 30 41 16 22 1004.0 1003.5 6.8
08/08:00pm 19.3 12.6 8.3 49 5.8 W 33 50 18 27 1003.2 1002.7 6.8
08/07:30pm 20.3 14.1 7.7 44 6.5 W 30 39 16 21 1002.5 1002.0 6.8
08/07:00pm 21.2 14.4 6.7 39 7.4 WSW 32 46 17 25 1002.2 1001.7 6.8
08/06:30pm 21.6 15.9 9.8 47 6.4 WSW 30 43 16 23 1001.8 1001.3 6.8
08/06:19pm 20.8 18.8 12.8 60 4.6 W 15 39 8 21 1001.7 1001.2 6.8
08/06:00pm 19.6 20.4 15.9 79 2.2 WNW 6 13 3 7 1001.5 1001.0 6.8
08/05:30pm 17.7 17.7 15.1 85 1.5 NNW 9 15 5 8 1001.5 1001.0 6.8
08/05:00pm 16.6 15.9 14.2 86 1.4 NW 11 20 6 11 1001.6 1001.1 6.8
08/04:30pm 15.9 15.6 14.3 90 0.9 NW 9 17 5 9 1001.5 1001.0 6.8
08/04:00pm 14.2 13.9 13.4 95 0.4 NNW 7 15 4 8 1001.5 1001.0 6.8
08/03:30pm 13.4 11.1 12.9 97 0.3 W 17 22 9 12 1001.9 1001.4 6.6
08/03:00pm 13.7 11.8 12.9 95 0.4 W 15 26 8 14 1002.1 1001.6 6.0
08/02:30pm 12.9 8.2 12.0 94 0.5 W 28 39 15 21 1002.3 1001.8 5.8
08/02:00pm 13.9 8.0 13.7 99 0.1 W 37 50 20 27 1002.5 1002.0 4.0
08/01:30pm 17.2 10.1 13.9 81 1.9 W 44 61 24 33 1001.1 1000.6 0.0
08/01:20pm 20.9 16.4 14.8 68 3.6 WNW 32 56 17 30 1000.0 999.5 0.0
08/01:19pm 23.5 20.9 17.7 70 3.6 NW 28 56 15 30 999.8 999.3 0.0
08/01:00pm 23.5 22.2 18.2 72 3.4 NW 22 35 12 19 1000.0 999.5 0.0
08/12:30pm 22.7 21.2 17.8 74 3.1 NW 22 41 12 22 1000.2 999.7 0.0
08/12:00pm 22.7 21.9 17.2 71 3.4 NW 17 26 9 14 1001.1 1000.6 0.0
08/11:30am 23.0 19.5 16.5 67 4.0 WNW 30 50 16 27 1001.2 1000.7 0.0
08/11:00am 27.0 22.4 12.3 40 8.6 NW 28 54 15 29 1000.6 1000.1 0.0
08/10:59am 27.2 22.5 12.0 38 8.8 NW 28 54 15 29 1000.6 1000.1 0.0
08/10:30am 27.6 21.3 11.2 36 9.4 NNW 35 48 19 26 1000.7 1000.2 0.0
08/10:00am 27.1 21.4 9.9 34 9.7 N 30 43 16 23 1001.0 1000.5 0.0
08/09:30am 26.1 20.7 9.5 35 9.2 N 28 35 15 19 1001.6 1001.1 0.0
08/09:00am 24.7 19.9 9.0 37 8.6 N 24 33 13 18 1002.3 1001.8 0.0
08/08:30am 22.8 19.0 8.9 41 7.5 N 19 24 10 13 1002.9 1002.4 0.0
08/08:00am 22.1 18.0 7.9 40 7.5 NNE 19 32 10 17 1003.0 1002.5 0.0
08/07:30am 21.3 18.0 7.9 42 7.0 NNE 15 24 8 13 1003.5 1003.0 0.0
08/07:00am 20.2 17.7 8.2 46 6.3 NNE 11 17 6 9 1004.0 1003.5 0.0
08/06:30am 18.8 16.8 8.5 51 5.4 NNE 9 13 5 7 1004.1 1003.6 0.0
08/06:00am 18.0 15.8 7.7 51 5.3 NNE 9 15 5 8 1003.9 1003.4 0.0
08/05:30am 18.0 15.4 7.7 51 5.3 NE 11 19 6 10 1004.0 1003.5 0.0
08/05:00am 16.7 14.9 8.1 57 4.4 NE 7 11 4 6 1004.5 1004.0 0.0
08/04:30am 16.2 14.0 7.9 58 4.2 NE 9 11 5 6 1004.8 1004.3 0.0
08/04:00am 16.6 14.6 7.0 53 4.8 NE 7 9 4 5 1005.1 1004.6 0.0
08/03:30am 17.4 15.2 6.3 48 5.5 NE 7 13 4 7 1005.1 1004.6 0.0
08/03:00am 17.7 15.5 7.7 52 5.1 ENE 9 13 5 7 1005.1 1004.6 0.0
08/02:30am 18.0 15.4 5.9 45 6.0 ENE 9 13 5 7 1005.4 1004.9 0.0
08/02:00am 18.3 15.9 5.2 42 6.4 NE 7 11 4 6 1006.1 1005.7 0.0
08/01:30am 18.5 16.0 6.4 45 6.0 ENE 9 13 5 7 1006.4 1006.0 0.0
08/01:00am 17.4 15.4 8.8 57 4.5 NE 9 11 5 6 1007.1 1006.6 0.0
08/12:30am 17.2 15.4 9.4 60 4.1 NE 9 9 5 5 1007.9 1007.4 0.0
08/12:00am 17.6 16.0 10.2 62 4.0 ENE 9 11 5 6 1008.2 1007.7 0.0
 
Date/Time
EDT
Temp
°C
App
Temp
°C
Dew
Point
°C
Rel
Hum
%
Delta-T
°C
Wind Press
QNH
hPa
Press
MSL
hPa
Rain since
9am
mm
Dir  Spd
km/h
Gust
km/h
Spd
kts
Gust
kts
07/11:30pm 16.9 15.1 9.6 62 3.8 NE 9 11 5 6 1008.6 1008.1 0.0
07/11:00pm 17.8 16.5 9.9 60 4.2 NE 7 9 4 5 1008.9 1008.4 0.0
07/10:30pm 17.3 15.7 8.2 55 4.7 NE 6 6 3 3 1009.3 1008.8 0.0
07/10:00pm 18.2 16.6 4.7 41 6.5 ENE 2 4 1 2 1009.3 1008.8 0.0
07/09:30pm 19.7 18.2 3.0 33 7.9 CALM 0 0 0 0 1009.4 1008.9 0.0
07/09:00pm 21.0 19.5 2.8 30 8.6 CALM 0 0 0 0 1009.5 1009.0 0.0
07/08:30pm 23.5 22.0 2.9 26 10.0 CALM 0 2 0 1 1009.6 1009.1 0.0
07/08:00pm 26.7 24.0 2.6 21 11.9 WSW 6 6 3 3 1009.8 1009.3 0.0
07/07:30pm 28.5 25.4 1.1 17 13.3 W 7 9 4 5 1009.8 1009.3 0.0
07/07:00pm 29.1 25.9 0.7 16 13.7 W 7 13 4 7 1009.8 1009.3 0.0
07/06:30pm 29.4 25.6 1.8 17 13.6 W 11 15 6 8 1010.1 1009.6 0.0
07/06:00pm 29.9 26.2 2.2 17 13.8 W 11 20 6 11 1010.2 1009.7 0.0
07/05:30pm 30.2 25.8 2.5 17 13.9 WSW 15 32 8 17 1010.4 1009.9 0.0
07/05:00pm 29.9 24.5 1.4 16 14.0 WSW 19 28 10 15 1010.6 1010.1 0.0
07/04:30pm 29.7 24.9 0.3 15 14.2 WSW 15 26 8 14 1010.9 1010.4 0.0
07/04:00pm 29.5 24.9 -0.8 14 14.3 WNW 13 22 7 12 1011.4 1010.9 0.0
07/03:30pm 29.6 25.5 2.0 17 13.7 NW 13 20 7 11 1011.8 1011.3 0.0
07/03:00pm 29.0 24.8 3.8 20 12.8 NW 15 24 8 13 1012.2 1011.7 0.0
07/02:30pm 28.6 24.2 2.7 19 12.9 W 15 24 8 13 1012.6 1012.2 0.0
07/02:00pm 27.9 24.2 2.2 19 12.6 NW 11 24 6 13 1012.9 1012.5 0.0
07/01:30pm 27.6 23.1 1.9 19 12.5 NNW 15 24 8 13 1013.3 1012.9 0.0
07/01:00pm 26.6 23.4 5.0 25 11.1 NW 11 20 6 11 1013.8 1013.4 0.0
07/12:30pm 26.3 22.5 7.4 30 10.1 NNW 17 22 9 12 1014.0 1013.6 0.0
07/12:00pm 26.1 22.7 5.7 27 10.6 WNW 13 19 7 10 1014.3 1013.9 0.0
07/11:30am 25.5 23.4 8.1 33 9.4 NNE 9 15 5 8 1014.5 1014.1 0.0
07/11:00am 23.9 21.4 8.3 37 8.3 N 11 17 6 9 1014.7 1014.3 0.0
07/10:30am 23.8 22.5 7.8 36 8.5 NW 4 9 2 5 1015.1 1014.6 0.0
07/10:00am 23.2 21.8 8.9 40 7.7 SSW 6 9 3 5 1015.2 1014.7 0.0
07/09:30am 22.4 22.1 11.5 50 6.1 WNW 4 9 2 5 1015.4 1014.9 0.0
07/09:00am 20.8 20.6 11.7 56 5.1 SSE 4 9 2 5 1015.4 1014.9 0.0
07/08:30am 19.2 18.9 11.5 61 4.3 SE 4 7 2 4 1015.2 1014.7 0.0
07/08:00am 17.1 16.4 11.4 69 3.1 SE 6 9 3 5 1014.8 1014.4 0.0
07/07:30am 13.9 13.8 10.9 82 1.6 SW 2 4 1 2 1014.8 1014.4 0.0
07/07:00am 11.7 11.3 9.9 89 0.9 WSW 2 2 1 1 1014.4 1014.0 0.0
07/06:30am 9.8 8.4 9.0 95 0.4 WSW 6 7 3 4 1014.1 1013.7 0.0
07/06:00am 9.0 7.8 8.1 94 0.4 SW 4 4 2 2 1013.7 1013.3 0.0
07/05:30am 9.4 7.9 8.3 93 0.5 WSW 6 7 3 4 1013.3 1012.9 0.0
07/05:00am 10.1 8.5 8.7 91 0.7 WSW 7 9 4 5 1013.2 1012.8 0.0
07/04:30am 10.3 8.4 8.9 91 0.7 WSW 9 11 5 6 1012.6 1012.2 0.0
07/04:00am 9.9 8.4 8.5 91 0.7 SSW 6 9 3 5 1012.3 1011.8 0.0
07/03:30am 10.1 8.5 8.7 91 0.7 SW 7 9 4 5 1012.3 1011.8 0.0
07/03:00am 10.9 9.5 8.8 87 1.0 SW 6 9 3 5 1012.2 1011.7 0.0
07/02:30am 11.1 9.5 8.7 85 1.2 WSW 7 11 4 6 1012.5 1012.1 0.0
07/02:00am 11.2 9.8 8.8 85 1.2 WSW 6 7 3 4 1012.8 1012.4 0.0
07/01:30am 13.2 12.4 9.5 78 1.9 N 4 6 2 3 1012.7 1012.3 0.0
07/01:00am 13.0 11.7 9.1 77 2.0 E 6 6 3 3 1012.9 1012.5 0.0
07/12:30am 13.5 13.4 9.6 77 2.0 CALM 0 6 0 3 1013.0 1012.6 0.0
07/12:00am 14.6 13.8 9.8 73 2.5 NNW 4 6 2 3 1013.1 1012.7 0.0
 
Date/Time
EDT
Temp
°C
App
Temp
°C
Dew
Point
°C
Rel
Hum
%
Delta-T
°C
Wind Press
QNH
hPa
Press
MSL
hPa
Rain since
9am
mm
Dir  Spd
km/h
Gust
km/h
Spd
kts
Gust
kts
06/11:30pm 15.9 14.9 10.2 69 3.0 NNW 6 6 3 3 1013.0 1012.6 0.0
06/11:00pm 18.4 17.5 10.5 60 4.3 NNW 6 9 3 5 1013.2 1012.8 0.0
06/10:30pm 16.0 15.0 8.7 62 3.8 NW 4 6 2 3 1013.1 1012.7 0.0
06/10:00pm 19.0 17.6 8.9 52 5.3 WNW 6 7 3 4 1013.0 1012.6 0.0
06/09:30pm 19.9 18.4 8.6 48 5.9 WNW 6 7 3 4 1012.9 1012.5 0.0
06/09:00pm 20.5 19.0 8.5 46 6.3 W 6 7 3 4 1012.6 1012.2 0.0
06/08:30pm 21.9 19.7 7.7 40 7.4 W 9 11 5 6 1012.3 1011.8 0.0
06/08:00pm 23.9 20.7 6.7 33 8.9 WSW 13 19 7 10 1012.1 1011.6 0.0
06/07:30pm 24.9 21.5 6.1 30 9.7 WSW 13 17 7 9 1011.8 1011.3 0.0
06/07:00pm 24.3 20.8 5.6 30 9.6 WSW 13 20 7 11 1011.7 1011.2 0.0
06/06:30pm 24.6 20.8 5.9 30 9.6 WSW 15 22 8 12 1011.7 1011.2 0.0
06/06:00pm 25.4 21.1 5.1 27 10.4 WSW 17 24 9 13 1011.3 1010.8 0.0
06/05:30pm 25.7 20.7 4.8 26 10.6 WSW 20 30 11 16 1011.3 1010.8 0.0
06/05:00pm 25.8 21.2 5.4 27 10.5 WSW 19 32 10 17 1011.2 1010.7 0.0
06/04:30pm 26.3 21.7 5.8 27 10.6 WSW 19 35 10 19 1011.3 1010.8 0.0
06/04:00pm 27.1 22.5 5.4 25 11.2 W 19 32 10 17 1011.2 1010.7 0.0
06/03:30pm 26.4 22.7 9.3 34 9.4 WSW 19 32 10 17 1011.5 1011.0 0.0
06/03:00pm 24.7 20.9 9.0 37 8.5 NNW 19 32 10 17 1011.7 1011.2 0.0
06/02:30pm 25.3 22.2 8.7 35 9.0 WNW 15 24 8 13 1011.9 1011.4 0.0
06/02:00pm 23.9 20.9 9.1 39 8.0 WSW 15 26 8 14 1012.2 1011.7 0.0
06/01:30pm 24.3 21.6 10.2 41 7.8 W 15 26 8 14 1012.6 1012.2 0.0
06/01:00pm 24.1 20.9 10.0 41 7.8 WSW 17 24 9 13 1012.6 1012.2 0.0
06/12:30pm 23.8 21.0 10.1 42 7.6 WSW 15 20 8 11 1012.5 1012.1 0.0
06/12:00pm 23.8 20.6 10.1 42 7.6 WSW 17 26 9 14 1012.4 1011.9 0.0
06/11:30am 24.1 20.9 10.0 41 7.8 WSW 17 28 9 15 1012.7 1012.3 0.0
06/11:00am 24.3 21.9 11.3 44 7.3 WSW 15 22 8 12 1012.7 1012.3 0.0

Other Formats:

Comma delimited format used in spreadsheet applications
http://www.bom.gov.au/fwo/IDN60801/IDN60801.94862.axf

JavaScript Object Notation format (JSON) in row-major order
http://www.bom.gov.au/fwo/IDN60801/IDN60801.94862.json